sensor_id;sensor_type;location;lat;lon;timestamp;P1;durP1;ratioP1;P2;durP2;ratioP2
26080;SDS011;13991;51.174;4.438;2023-06-24T00:02:21;11.00;;;3.03;;
26080;SDS011;13991;51.174;4.438;2023-06-24T00:04:49;9.83;;;3.50;;
26080;SDS011;13991;51.174;4.438;2023-06-24T00:07:16;12.87;;;3.37;;
26080;SDS011;13991;51.174;4.438;2023-06-24T00:09:41;9.83;;;3.47;;
26080;SDS011;13991;51.174;4.438;2023-06-24T00:12:07;8.43;;;3.93;;
26080;SDS011;13991;51.174;4.438;2023-06-24T00:14:33;9.67;;;3.40;;
26080;SDS011;13991;51.174;4.438;2023-06-24T00:16:58;10.80;;;4.10;;
26080;SDS011;13991;51.174;4.438;2023-06-24T00:19:25;9.47;;;3.90;;
26080;SDS011;13991;51.174;4.438;2023-06-24T00:21:52;14.67;;;3.77;;
26080;SDS011;13991;51.174;4.438;2023-06-24T00:24:21;10.77;;;4.30;;
26080;SDS011;13991;51.174;4.438;2023-06-24T00:26:54;10.53;;;4.50;;
26080;SDS011;13991;51.174;4.438;2023-06-24T00:29:20;7.83;;;4.50;;
26080;SDS011;13991;51.174;4.438;2023-06-24T00:31:45;7.50;;;3.87;;
26080;SDS011;13991;51.174;4.438;2023-06-24T00:34:11;14.27;;;4.10;;
26080;SDS011;13991;51.174;4.438;2023-06-24T00:36:37;14.33;;;4.63;;
26080;SDS011;13991;51.174;4.438;2023-06-24T00:39:03;13.27;;;4.17;;
26080;SDS011;13991;51.174;4.438;2023-06-24T00:41:30;21.23;;;4.63;;
26080;SDS011;13991;51.174;4.438;2023-06-24T00:43:57;11.70;;;4.40;;
26080;SDS011;13991;51.174;4.438;2023-06-24T00:46:26;12.33;;;4.00;;
26080;SDS011;13991;51.174;4.438;2023-06-24T00:48:54;8.80;;;4.87;;
26080;SDS011;13991;51.174;4.438;2023-06-24T00:51:20;13.70;;;4.60;;
26080;SDS011;13991;51.174;4.438;2023-06-24T00:53:51;16.50;;;5.27;;
26080;SDS011;13991;51.174;4.438;2023-06-24T00:56:21;11.90;;;4.93;;
26080;SDS011;13991;51.174;4.438;2023-06-24T00:58:50;13.60;;;5.20;;
26080;SDS011;13991;51.174;4.438;2023-06-24T01:01:17;12.97;;;4.90;;
26080;SDS011;13991;51.174;4.438;2023-06-24T01:03:43;16.63;;;5.77;;
26080;SDS011;13991;51.174;4.438;2023-06-24T01:06:09;12.10;;;5.00;;
26080;SDS011;13991;51.174;4.438;2023-06-24T01:08:35;14.07;;;5.60;;
26080;SDS011;13991;51.174;4.438;2023-06-24T01:11:00;14.07;;;6.20;;
26080;SDS011;13991;51.174;4.438;2023-06-24T01:13:26;15.47;;;5.17;;
26080;SDS011;13991;51.174;4.438;2023-06-24T01:15:52;19.80;;;5.97;;
26080;SDS011;13991;51.174;4.438;2023-06-24T01:18:33;17.10;;;5.87;;
26080;SDS011;13991;51.174;4.438;2023-06-24T01:26:34;10.20;;;5.60;;
26080;SDS011;13991;51.174;4.438;2023-06-24T01:32:26;13.80;;;5.67;;
26080;SDS011;13991;51.174;4.438;2023-06-24T01:35:02;17.27;;;6.30;;
26080;SDS011;13991;51.174;4.438;2023-06-24T01:37:37;21.07;;;6.27;;
26080;SDS011;13991;51.174;4.438;2023-06-24T01:40:31;17.57;;;6.93;;
26080;SDS011;13991;51.174;4.438;2023-06-24T01:43:03;9.47;;;6.50;;
26080;SDS011;13991;51.174;4.438;2023-06-24T01:45:32;18.57;;;6.47;;
26080;SDS011;13991;51.174;4.438;2023-06-24T01:48:09;15.93;;;6.40;;
26080;SDS011;13991;51.174;4.438;2023-06-24T01:50:39;17.97;;;6.47;;
26080;SDS011;13991;51.174;4.438;2023-06-24T01:53:22;11.40;;;5.73;;
26080;SDS011;13991;51.174;4.438;2023-06-24T01:55:48;16.07;;;7.23;;
26080;SDS011;13991;51.174;4.438;2023-06-24T01:58:14;17.50;;;7.70;;
26080;SDS011;13991;51.174;4.438;2023-06-24T02:00:44;17.63;;;6.97;;
26080;SDS011;13991;51.174;4.438;2023-06-24T02:03:10;13.13;;;6.70;;
26080;SDS011;13991;51.174;4.438;2023-06-24T02:05:36;11.03;;;6.30;;
26080;SDS011;13991;51.174;4.438;2023-06-24T02:08:06;15.47;;;7.17;;
26080;SDS011;13991;51.174;4.438;2023-06-24T02:10:36;16.50;;;6.33;;
26080;SDS011;13991;51.174;4.438;2023-06-24T02:13:03;14.37;;;6.70;;
26080;SDS011;13991;51.174;4.438;2023-06-24T02:15:30;14.87;;;6.20;;
26080;SDS011;13991;51.174;4.438;2023-06-24T02:17:58;14.93;;;7.20;;
26080;SDS011;13991;51.174;4.438;2023-06-24T02:20:27;17.77;;;6.37;;
26080;SDS011;13991;51.174;4.438;2023-06-24T02:22:54;24.73;;;6.80;;
26080;SDS011;13991;51.174;4.438;2023-06-24T02:25:23;18.80;;;6.23;;
26080;SDS011;13991;51.174;4.438;2023-06-24T02:27:51;14.50;;;6.53;;
26080;SDS011;13991;51.174;4.438;2023-06-24T02:30:20;12.17;;;6.33;;
26080;SDS011;13991;51.174;4.438;2023-06-24T02:32:47;13.50;;;6.23;;
26080;SDS011;13991;51.174;4.438;2023-06-24T02:35:12;11.67;;;6.50;;
26080;SDS011;13991;51.174;4.438;2023-06-24T02:37:38;17.20;;;6.80;;
26080;SDS011;13991;51.174;4.438;2023-06-24T02:40:05;17.33;;;6.43;;
26080;SDS011;13991;51.174;4.438;2023-06-24T02:42:32;10.73;;;5.57;;
26080;SDS011;13991;51.174;4.438;2023-06-24T02:44:58;13.17;;;6.00;;
26080;SDS011;13991;51.174;4.438;2023-06-24T02:47:24;17.57;;;7.07;;
26080;SDS011;13991;51.174;4.438;2023-06-24T02:49:50;12.50;;;6.67;;
26080;SDS011;13991;51.174;4.438;2023-06-24T02:52:19;12.17;;;6.43;;
26080;SDS011;13991;51.174;4.438;2023-06-24T02:54:45;11.53;;;6.47;;
26080;SDS011;13991;51.174;4.438;2023-06-24T02:57:11;20.57;;;6.40;;
26080;SDS011;13991;51.174;4.438;2023-06-24T02:59:39;13.83;;;7.00;;
26080;SDS011;13991;51.174;4.438;2023-06-24T03:02:04;13.37;;;6.20;;
26080;SDS011;13991;51.174;4.438;2023-06-24T03:04:30;10.80;;;6.20;;
26080;SDS011;13991;51.174;4.438;2023-06-24T03:06:56;12.57;;;5.77;;
26080;SDS011;13991;51.174;4.438;2023-06-24T03:09:26;12.70;;;6.20;;
26080;SDS011;13991;51.174;4.438;2023-06-24T03:11:52;12.60;;;6.63;;
26080;SDS011;13991;51.174;4.438;2023-06-24T03:14:18;13.93;;;6.27;;
26080;SDS011;13991;51.174;4.438;2023-06-24T03:16:44;11.00;;;6.17;;
26080;SDS011;13991;51.174;4.438;2023-06-24T03:19:10;10.97;;;6.03;;
26080;SDS011;13991;51.174;4.438;2023-06-24T03:21:36;11.60;;;5.87;;
26080;SDS011;13991;51.174;4.438;2023-06-24T03:24:01;17.10;;;6.00;;
26080;SDS011;13991;51.174;4.438;2023-06-24T03:26:31;8.73;;;5.57;;
26080;SDS011;13991;51.174;4.438;2023-06-24T03:28:59;11.23;;;5.60;;
26080;SDS011;13991;51.174;4.438;2023-06-24T03:31:25;13.00;;;5.87;;
26080;SDS011;13991;51.174;4.438;2023-06-24T03:33:50;13.30;;;6.57;;
26080;SDS011;13991;51.174;4.438;2023-06-24T03:36:16;15.33;;;6.60;;
26080;SDS011;13991;51.174;4.438;2023-06-24T03:38:41;14.77;;;6.40;;
26080;SDS011;13991;51.174;4.438;2023-06-24T03:41:07;9.57;;;6.07;;
26080;SDS011;13991;51.174;4.438;2023-06-24T03:43:33;11.97;;;5.97;;
26080;SDS011;13991;51.174;4.438;2023-06-24T03:45:58;10.37;;;5.73;;
26080;SDS011;13991;51.174;4.438;2023-06-24T03:48:25;14.03;;;6.23;;
26080;SDS011;13991;51.174;4.438;2023-06-24T03:50:52;15.57;;;5.50;;
26080;SDS011;13991;51.174;4.438;2023-06-24T03:53:18;15.10;;;5.87;;
26080;SDS011;13991;51.174;4.438;2023-06-24T03:55:43;10.37;;;5.33;;
26080;SDS011;13991;51.174;4.438;2023-06-24T03:58:09;10.33;;;5.87;;
26080;SDS011;13991;51.174;4.438;2023-06-24T04:00:34;14.87;;;6.00;;
26080;SDS011;13991;51.174;4.438;2023-06-24T04:03:05;14.37;;;6.60;;
26080;SDS011;13991;51.174;4.438;2023-06-24T04:05:33;14.83;;;4.97;;
26080;SDS011;13991;51.174;4.438;2023-06-24T04:07:59;15.27;;;5.33;;
26080;SDS011;13991;51.174;4.438;2023-06-24T04:10:25;11.93;;;5.00;;
26080;SDS011;13991;51.174;4.438;2023-06-24T04:12:51;12.10;;;4.60;;
26080;SDS011;13991;51.174;4.438;2023-06-24T04:15:17;13.07;;;5.50;;
26080;SDS011;13991;51.174;4.438;2023-06-24T04:17:42;10.03;;;5.17;;
26080;SDS011;13991;51.174;4.438;2023-06-24T04:20:08;14.00;;;4.77;;
26080;SDS011;13991;51.174;4.438;2023-06-24T04:22:39;12.80;;;5.20;;
26080;SDS011;13991;51.174;4.438;2023-06-24T04:25:05;8.87;;;4.70;;
26080;SDS011;13991;51.174;4.438;2023-06-24T04:27:31;10.73;;;4.70;;
26080;SDS011;13991;51.174;4.438;2023-06-24T04:30:01;10.37;;;4.93;;
26080;SDS011;13991;51.174;4.438;2023-06-24T04:32:27;10.80;;;4.43;;
26080;SDS011;13991;51.174;4.438;2023-06-24T04:34:52;12.87;;;5.10;;
26080;SDS011;13991;51.174;4.438;2023-06-24T04:37:18;9.00;;;4.70;;
26080;SDS011;13991;51.174;4.438;2023-06-24T04:39:44;11.87;;;5.03;;
26080;SDS011;13991;51.174;4.438;2023-06-24T04:42:10;12.27;;;4.60;;
26080;SDS011;13991;51.174;4.438;2023-06-24T04:44:36;8.03;;;4.47;;
26080;SDS011;13991;51.174;4.438;2023-06-24T04:47:02;9.70;;;4.63;;
26080;SDS011;13991;51.174;4.438;2023-06-24T04:49:28;13.10;;;5.03;;
26080;SDS011;13991;51.174;4.438;2023-06-24T04:51:54;10.10;;;4.27;;
26080;SDS011;13991;51.174;4.438;2023-06-24T04:54:19;9.07;;;4.50;;
26080;SDS011;13991;51.174;4.438;2023-06-24T04:56:45;6.83;;;4.10;;
26080;SDS011;13991;51.174;4.438;2023-06-24T04:59:13;11.47;;;4.40;;
26080;SDS011;13991;51.174;4.438;2023-06-24T05:01:39;11.87;;;4.00;;
26080;SDS011;13991;51.174;4.438;2023-06-24T05:04:04;7.30;;;4.00;;
26080;SDS011;13991;51.174;4.438;2023-06-24T05:06:30;8.33;;;3.97;;
26080;SDS011;13991;51.174;4.438;2023-06-24T05:08:55;9.63;;;3.73;;
26080;SDS011;13991;51.174;4.438;2023-06-24T05:11:21;9.17;;;3.77;;
26080;SDS011;13991;51.174;4.438;2023-06-24T05:13:47;8.73;;;3.60;;
26080;SDS011;13991;51.174;4.438;2023-06-24T05:16:12;11.50;;;4.07;;
26080;SDS011;13991;51.174;4.438;2023-06-24T05:18:38;9.97;;;3.67;;
26080;SDS011;13991;51.174;4.438;2023-06-24T05:21:04;16.07;;;4.67;;
26080;SDS011;13991;51.174;4.438;2023-06-24T05:23:29;7.63;;;3.43;;
26080;SDS011;13991;51.174;4.438;2023-06-24T05:25:55;11.07;;;4.03;;
26080;SDS011;13991;51.174;4.438;2023-06-24T05:28:21;6.80;;;3.77;;
26080;SDS011;13991;51.174;4.438;2023-06-24T05:30:46;10.60;;;4.47;;
26080;SDS011;13991;51.174;4.438;2023-06-24T05:33:12;11.47;;;4.37;;
26080;SDS011;13991;51.174;4.438;2023-06-24T05:35:39;10.37;;;4.20;;
26080;SDS011;13991;51.174;4.438;2023-06-24T05:38:06;13.90;;;4.40;;
26080;SDS011;13991;51.174;4.438;2023-06-24T05:40:32;9.80;;;4.13;;
26080;SDS011;13991;51.174;4.438;2023-06-24T05:42:58;8.77;;;4.07;;
26080;SDS011;13991;51.174;4.438;2023-06-24T05:45:26;16.40;;;4.67;;
26080;SDS011;13991;51.174;4.438;2023-06-24T05:47:51;11.97;;;4.33;;
26080;SDS011;13991;51.174;4.438;2023-06-24T05:50:17;10.47;;;4.13;;
26080;SDS011;13991;51.174;4.438;2023-06-24T05:52:43;12.63;;;4.43;;
26080;SDS011;13991;51.174;4.438;2023-06-24T05:55:08;11.87;;;4.20;;
26080;SDS011;13991;51.174;4.438;2023-06-24T05:57:34;8.77;;;4.50;;
26080;SDS011;13991;51.174;4.438;2023-06-24T05:59:59;12.13;;;4.77;;
26080;SDS011;13991;51.174;4.438;2023-06-24T06:02:25;11.10;;;4.67;;
26080;SDS011;13991;51.174;4.438;2023-06-24T06:04:51;8.20;;;4.50;;
26080;SDS011;13991;51.174;4.438;2023-06-24T06:07:17;9.23;;;4.80;;
26080;SDS011;13991;51.174;4.438;2023-06-24T06:09:43;15.30;;;5.00;;
26080;SDS011;13991;51.174;4.438;2023-06-24T06:12:09;14.83;;;4.43;;
26080;SDS011;13991;51.174;4.438;2023-06-24T06:14:34;10.23;;;4.07;;
26080;SDS011;13991;51.174;4.438;2023-06-24T06:17:00;11.53;;;4.60;;
26080;SDS011;13991;51.174;4.438;2023-06-24T06:19:26;9.37;;;4.50;;
26080;SDS011;13991;51.174;4.438;2023-06-24T06:21:51;9.83;;;4.27;;
26080;SDS011;13991;51.174;4.438;2023-06-24T06:24:17;11.23;;;4.60;;
26080;SDS011;13991;51.174;4.438;2023-06-24T06:26:43;9.97;;;4.70;;
26080;SDS011;13991;51.174;4.438;2023-06-24T06:29:09;14.70;;;4.90;;
26080;SDS011;13991;51.174;4.438;2023-06-24T06:31:36;10.13;;;5.10;;
26080;SDS011;13991;51.174;4.438;2023-06-24T06:34:01;17.10;;;5.00;;
26080;SDS011;13991;51.174;4.438;2023-06-24T06:36:27;9.80;;;4.47;;
26080;SDS011;13991;51.174;4.438;2023-06-24T06:38:53;10.47;;;4.97;;
26080;SDS011;13991;51.174;4.438;2023-06-24T06:41:19;15.23;;;5.40;;
26080;SDS011;13991;51.174;4.438;2023-06-24T06:43:49;9.30;;;4.80;;
26080;SDS011;13991;51.174;4.438;2023-06-24T06:46:16;14.13;;;4.67;;
26080;SDS011;13991;51.174;4.438;2023-06-24T06:48:41;16.53;;;5.33;;
26080;SDS011;13991;51.174;4.438;2023-06-24T06:51:07;10.17;;;4.03;;
26080;SDS011;13991;51.174;4.438;2023-06-24T06:53:33;12.23;;;5.30;;
26080;SDS011;13991;51.174;4.438;2023-06-24T06:55:58;10.57;;;5.50;;
26080;SDS011;13991;51.174;4.438;2023-06-24T06:58:24;16.50;;;5.87;;
26080;SDS011;13991;51.174;4.438;2023-06-24T07:00:50;13.87;;;5.03;;
26080;SDS011;13991;51.174;4.438;2023-06-24T07:03:16;10.27;;;5.03;;
26080;SDS011;13991;51.174;4.438;2023-06-24T07:05:41;13.47;;;5.50;;
26080;SDS011;13991;51.174;4.438;2023-06-24T07:08:07;9.20;;;4.80;;
26080;SDS011;13991;51.174;4.438;2023-06-24T07:10:33;10.03;;;5.27;;
26080;SDS011;13991;51.174;4.438;2023-06-24T07:12:58;13.33;;;5.20;;
26080;SDS011;13991;51.174;4.438;2023-06-24T07:15:27;15.67;;;5.83;;
26080;SDS011;13991;51.174;4.438;2023-06-24T07:17:53;15.23;;;4.87;;
26080;SDS011;13991;51.174;4.438;2023-06-24T07:20:19;11.30;;;4.90;;
26080;SDS011;13991;51.174;4.438;2023-06-24T07:22:46;13.40;;;5.63;;
26080;SDS011;13991;51.174;4.438;2023-06-24T07:25:12;8.77;;;4.53;;
26080;SDS011;13991;51.174;4.438;2023-06-24T07:27:39;12.43;;;5.17;;
26080;SDS011;13991;51.174;4.438;2023-06-24T07:30:05;12.13;;;5.07;;
26080;SDS011;13991;51.174;4.438;2023-06-24T07:32:31;15.97;;;5.47;;
26080;SDS011;13991;51.174;4.438;2023-06-24T07:34:57;15.10;;;5.27;;
26080;SDS011;13991;51.174;4.438;2023-06-24T07:37:23;10.03;;;5.00;;
26080;SDS011;13991;51.174;4.438;2023-06-24T07:39:49;12.77;;;5.40;;
26080;SDS011;13991;51.174;4.438;2023-06-24T07:42:14;10.90;;;5.00;;
26080;SDS011;13991;51.174;4.438;2023-06-24T07:44:44;13.60;;;5.27;;
26080;SDS011;13991;51.174;4.438;2023-06-24T07:47:10;12.33;;;5.57;;
26080;SDS011;13991;51.174;4.438;2023-06-24T07:49:36;13.00;;;5.67;;
26080;SDS011;13991;51.174;4.438;2023-06-24T07:52:02;15.13;;;5.77;;
26080;SDS011;13991;51.174;4.438;2023-06-24T07:54:29;11.70;;;5.70;;
26080;SDS011;13991;51.174;4.438;2023-06-24T07:56:55;12.90;;;5.20;;
26080;SDS011;13991;51.174;4.438;2023-06-24T07:59:21;12.57;;;5.40;;
26080;SDS011;13991;51.174;4.438;2023-06-24T08:01:47;9.10;;;4.57;;
26080;SDS011;13991;51.174;4.438;2023-06-24T08:04:13;10.27;;;4.37;;
26080;SDS011;13991;51.174;4.438;2023-06-24T08:06:39;10.07;;;4.30;;
26080;SDS011;13991;51.174;4.438;2023-06-24T08:09:05;12.93;;;4.87;;
26080;SDS011;13991;51.174;4.438;2023-06-24T08:11:30;16.07;;;4.87;;
26080;SDS011;13991;51.174;4.438;2023-06-24T08:13:56;6.97;;;3.90;;
26080;SDS011;13991;51.174;4.438;2023-06-24T08:16:22;10.40;;;4.10;;
26080;SDS011;13991;51.174;4.438;2023-06-24T08:18:47;12.07;;;4.80;;
26080;SDS011;13991;51.174;4.438;2023-06-24T08:21:13;9.10;;;4.47;;
26080;SDS011;13991;51.174;4.438;2023-06-24T08:23:39;9.57;;;4.20;;
26080;SDS011;13991;51.174;4.438;2023-06-24T08:26:05;9.77;;;4.47;;
26080;SDS011;13991;51.174;4.438;2023-06-24T08:28:32;12.40;;;3.97;;
26080;SDS011;13991;51.174;4.438;2023-06-24T08:30:58;6.00;;;4.50;;
26080;SDS011;13991;51.174;4.438;2023-06-24T08:33:23;11.60;;;4.90;;
26080;SDS011;13991;51.174;4.438;2023-06-24T08:35:49;10.50;;;4.30;;
26080;SDS011;13991;51.174;4.438;2023-06-24T08:38:14;11.40;;;4.27;;
26080;SDS011;13991;51.174;4.438;2023-06-24T08:40:40;7.77;;;3.50;;
26080;SDS011;13991;51.174;4.438;2023-06-24T08:43:08;12.43;;;3.92;;
26080;SDS011;13991;51.174;4.438;2023-06-24T08:45:34;8.77;;;3.83;;
26080;SDS011;13991;51.174;4.438;2023-06-24T08:47:59;10.85;;;3.88;;
26080;SDS011;13991;51.174;4.438;2023-06-24T08:50:27;12.00;;;4.00;;
26080;SDS011;13991;51.174;4.438;2023-06-24T08:52:59;7.10;;;4.38;;
26080;SDS011;13991;51.174;4.438;2023-06-24T08:55:27;12.25;;;4.63;;
26080;SDS011;13991;51.174;4.438;2023-06-24T08:57:56;6.00;;;3.30;;
26080;SDS011;13991;51.174;4.438;2023-06-24T09:00:22;10.77;;;4.25;;
26080;SDS011;13991;51.174;4.438;2023-06-24T09:02:47;7.43;;;3.40;;
26080;SDS011;13991;51.174;4.438;2023-06-24T09:05:13;7.90;;;3.00;;
26080;SDS011;13991;51.174;4.438;2023-06-24T09:07:40;8.55;;;2.85;;
26080;SDS011;13991;51.174;4.438;2023-06-24T09:10:06;5.55;;;2.70;;
26080;SDS011;13991;51.174;4.438;2023-06-24T09:12:32;2.90;;;1.65;;
26080;SDS011;13991;51.174;4.438;2023-06-24T09:14:59;10.23;;;2.35;;
26080;SDS011;13991;51.174;4.438;2023-06-24T09:17:24;4.75;;;2.28;;
26080;SDS011;13991;51.174;4.438;2023-06-24T09:19:50;4.65;;;2.30;;
26080;SDS011;13991;51.174;4.438;2023-06-24T09:22:16;6.85;;;2.90;;
26080;SDS011;13991;51.174;4.438;2023-06-24T09:24:48;9.43;;;2.65;;
26080;SDS011;13991;51.174;4.438;2023-06-24T09:27:14;7.43;;;2.15;;
26080;SDS011;13991;51.174;4.438;2023-06-24T09:29:41;3.38;;;1.55;;
26080;SDS011;13991;51.174;4.438;2023-06-24T09:32:08;4.95;;;2.10;;
26080;SDS011;13991;51.174;4.438;2023-06-24T09:34:34;10.88;;;2.95;;
26080;SDS011;13991;51.174;4.438;2023-06-24T09:37:00;8.90;;;2.60;;
26080;SDS011;13991;51.174;4.438;2023-06-24T09:39:27;8.23;;;2.83;;
26080;SDS011;13991;51.174;4.438;2023-06-24T09:41:54;4.05;;;2.15;;
26080;SDS011;13991;51.174;4.438;2023-06-24T09:44:27;8.70;;;2.65;;
26080;SDS011;13991;51.174;4.438;2023-06-24T09:46:53;4.35;;;2.15;;
26080;SDS011;13991;51.174;4.438;2023-06-24T09:49:24;4.30;;;1.88;;
26080;SDS011;13991;51.174;4.438;2023-06-24T09:51:53;6.90;;;2.45;;
26080;SDS011;13991;51.174;4.438;2023-06-24T09:54:21;4.60;;;2.30;;
26080;SDS011;13991;51.174;4.438;2023-06-24T09:56:50;7.20;;;2.45;;
26080;SDS011;13991;51.174;4.438;2023-06-24T09:59:18;4.13;;;2.13;;
26080;SDS011;13991;51.174;4.438;2023-06-24T10:01:47;11.13;;;1.80;;
26080;SDS011;13991;51.174;4.438;2023-06-24T10:04:17;3.92;;;1.58;;
26080;SDS011;13991;51.174;4.438;2023-06-24T10:06:44;4.97;;;1.73;;
26080;SDS011;13991;51.174;4.438;2023-06-24T10:09:10;8.82;;;1.95;;
26080;SDS011;13991;51.174;4.438;2023-06-24T10:11:38;2.90;;;1.55;;
26080;SDS011;13991;51.174;4.438;2023-06-24T10:14:04;4.82;;;1.80;;
26080;SDS011;13991;51.174;4.438;2023-06-24T10:16:31;3.10;;;1.52;;
26080;SDS011;13991;51.174;4.438;2023-06-24T10:19:00;2.28;;;1.65;;
26080;SDS011;13991;51.174;4.438;2023-06-24T10:24:27;3.53;;;1.52;;
26080;SDS011;13991;51.174;4.438;2023-06-24T10:26:55;5.43;;;2.08;;
26080;SDS011;13991;51.174;4.438;2023-06-24T10:29:34;6.65;;;1.80;;
26080;SDS011;13991;51.174;4.438;2023-06-24T10:32:04;12.02;;;1.98;;
26080;SDS011;13991;51.174;4.438;2023-06-24T10:34:38;3.28;;;1.55;;
26080;SDS011;13991;51.174;4.438;2023-06-24T10:39:57;3.40;;;1.58;;
26080;SDS011;13991;51.174;4.438;2023-06-24T10:42:27;3.53;;;1.33;;
26080;SDS011;13991;51.174;4.438;2023-06-24T10:47:34;3.00;;;1.55;;
26080;SDS011;13991;51.174;4.438;2023-06-24T10:50:00;2.55;;;1.88;;
26080;SDS011;13991;51.174;4.438;2023-06-24T10:52:26;4.25;;;1.75;;
26080;SDS011;13991;51.174;4.438;2023-06-24T10:54:52;2.80;;;1.10;;
26080;SDS011;13991;51.174;4.438;2023-06-24T10:57:22;5.20;;;1.70;;
26080;SDS011;13991;51.174;4.438;2023-06-24T10:59:50;4.63;;;2.28;;
26080;SDS011;13991;51.174;4.438;2023-06-24T11:02:17;6.00;;;1.75;;
26080;SDS011;13991;51.174;4.438;2023-06-24T11:07:10;4.35;;;1.60;;
26080;SDS011;13991;51.174;4.438;2023-06-24T11:09:36;5.22;;;2.05;;
26080;SDS011;13991;51.174;4.438;2023-06-24T11:12:02;3.88;;;1.30;;
26080;SDS011;13991;51.174;4.438;2023-06-24T11:14:29;5.93;;;1.80;;
26080;SDS011;13991;51.174;4.438;2023-06-24T11:16:54;7.07;;;2.00;;
26080;SDS011;13991;51.174;4.438;2023-06-24T11:19:20;3.70;;;1.50;;
26080;SDS011;13991;51.174;4.438;2023-06-24T11:21:45;6.60;;;1.40;;
26080;SDS011;13991;51.174;4.438;2023-06-24T11:24:11;5.53;;;1.45;;
26080;SDS011;13991;51.174;4.438;2023-06-24T11:26:38;4.15;;;1.75;;
26080;SDS011;13991;51.174;4.438;2023-06-24T11:29:13;6.10;;;2.15;;
26080;SDS011;13991;51.174;4.438;2023-06-24T11:31:38;3.72;;;1.83;;
26080;SDS011;13991;51.174;4.438;2023-06-24T11:34:04;5.00;;;1.55;;
26080;SDS011;13991;51.174;4.438;2023-06-24T11:36:30;2.10;;;1.08;;
26080;SDS011;13991;51.174;4.438;2023-06-24T11:38:55;2.45;;;1.55;;
26080;SDS011;13991;51.174;4.438;2023-06-24T11:41:21;2.03;;;1.30;;
26080;SDS011;13991;51.174;4.438;2023-06-24T11:43:47;2.95;;;1.25;;
26080;SDS011;13991;51.174;4.438;2023-06-24T11:46:26;2.72;;;1.50;;
26080;SDS011;13991;51.174;4.438;2023-06-24T11:48:52;5.82;;;1.75;;
26080;SDS011;13991;51.174;4.438;2023-06-24T11:51:27;6.82;;;1.38;;
26080;SDS011;13991;51.174;4.438;2023-06-24T11:53:58;1.73;;;1.30;;
26080;SDS011;13991;51.174;4.438;2023-06-24T11:56:38;1.73;;;1.17;;
26080;SDS011;13991;51.174;4.438;2023-06-24T11:59:16;2.03;;;1.00;;
26080;SDS011;13991;51.174;4.438;2023-06-24T12:01:42;11.00;;;1.60;;
26080;SDS011;13991;51.174;4.438;2023-06-24T12:04:12;1.77;;;1.23;;
26080;SDS011;13991;51.174;4.438;2023-06-24T12:06:42;5.57;;;1.35;;
26080;SDS011;13991;51.174;4.438;2023-06-24T12:09:08;4.05;;;1.10;;
26080;SDS011;13991;51.174;4.438;2023-06-24T12:11:34;2.20;;;1.13;;
26080;SDS011;13991;51.174;4.438;2023-06-24T12:14:00;1.88;;;1.00;;
26080;SDS011;13991;51.174;4.438;2023-06-24T12:16:26;4.50;;;1.17;;
26080;SDS011;13991;51.174;4.438;2023-06-24T12:18:52;1.90;;;1.30;;
26080;SDS011;13991;51.174;4.438;2023-06-24T12:21:18;6.07;;;1.10;;
26080;SDS011;13991;51.174;4.438;2023-06-24T12:23:44;1.95;;;1.27;;
26080;SDS011;13991;51.174;4.438;2023-06-24T12:26:10;3.25;;;0.95;;
26080;SDS011;13991;51.174;4.438;2023-06-24T12:28:36;3.35;;;1.02;;
26080;SDS011;13991;51.174;4.438;2023-06-24T12:31:02;8.27;;;1.30;;
26080;SDS011;13991;51.174;4.438;2023-06-24T12:33:28;9.77;;;1.40;;
26080;SDS011;13991;51.174;4.438;2023-06-24T12:35:54;4.93;;;1.33;;
26080;SDS011;13991;51.174;4.438;2023-06-24T12:38:19;5.78;;;1.40;;
26080;SDS011;13991;51.174;4.438;2023-06-24T12:40:45;4.45;;;1.33;;
26080;SDS011;13991;51.174;4.438;2023-06-24T12:43:11;2.90;;;1.35;;
26080;SDS011;13991;51.174;4.438;2023-06-24T12:45:43;4.32;;;1.25;;
26080;SDS011;13991;51.174;4.438;2023-06-24T12:48:09;3.95;;;1.38;;
26080;SDS011;13991;51.174;4.438;2023-06-24T12:50:35;4.43;;;1.40;;
26080;SDS011;13991;51.174;4.438;2023-06-24T12:53:01;2.92;;;0.90;;
26080;SDS011;13991;51.174;4.438;2023-06-24T12:55:28;1.80;;;1.00;;
26080;SDS011;13991;51.174;4.438;2023-06-24T12:57:54;5.65;;;1.38;;
26080;SDS011;13991;51.174;4.438;2023-06-24T13:00:20;1.17;;;0.93;;
26080;SDS011;13991;51.174;4.438;2023-06-24T13:02:48;1.83;;;1.13;;
26080;SDS011;13991;51.174;4.438;2023-06-24T13:05:14;1.65;;;0.98;;
26080;SDS011;13991;51.174;4.438;2023-06-24T13:07:40;2.72;;;1.35;;
26080;SDS011;13991;51.174;4.438;2023-06-24T13:10:06;1.73;;;1.08;;
26080;SDS011;13991;51.174;4.438;2023-06-24T13:12:32;6.10;;;1.10;;
26080;SDS011;13991;51.174;4.438;2023-06-24T13:14:58;6.20;;;1.20;;
26080;SDS011;13991;51.174;4.438;2023-06-24T13:17:24;1.48;;;1.08;;
26080;SDS011;13991;51.174;4.438;2023-06-24T13:19:50;1.75;;;1.02;;
26080;SDS011;13991;51.174;4.438;2023-06-24T13:22:17;4.63;;;1.40;;
26080;SDS011;13991;51.174;4.438;2023-06-24T13:24:43;5.65;;;1.25;;
26080;SDS011;13991;51.174;4.438;2023-06-24T13:27:09;2.35;;;1.02;;
26080;SDS011;13991;51.174;4.438;2023-06-24T13:29:35;4.32;;;1.08;;
26080;SDS011;13991;51.174;4.438;2023-06-24T13:32:01;2.72;;;1.35;;
26080;SDS011;13991;51.174;4.438;2023-06-24T13:34:27;2.13;;;1.10;;
26080;SDS011;13991;51.174;4.438;2023-06-24T13:36:53;2.30;;;1.10;;
26080;SDS011;13991;51.174;4.438;2023-06-24T13:39:19;4.93;;;1.15;;
26080;SDS011;13991;51.174;4.438;2023-06-24T13:41:48;4.45;;;1.60;;
26080;SDS011;13991;51.174;4.438;2023-06-24T13:44:15;4.13;;;1.63;;
26080;SDS011;13991;51.174;4.438;2023-06-24T13:46:41;2.47;;;1.30;;
26080;SDS011;13991;51.174;4.438;2023-06-24T13:49:09;2.42;;;1.30;;
26080;SDS011;13991;51.174;4.438;2023-06-24T13:51:36;2.45;;;1.40;;
26080;SDS011;13991;51.174;4.438;2023-06-24T13:54:02;3.50;;;1.52;;
26080;SDS011;13991;51.174;4.438;2023-06-24T13:56:28;2.20;;;1.10;;
26080;SDS011;13991;51.174;4.438;2023-06-24T13:58:54;3.60;;;1.42;;
26080;SDS011;13991;51.174;4.438;2023-06-24T14:01:20;3.67;;;1.40;;
26080;SDS011;13991;51.174;4.438;2023-06-24T14:03:47;3.88;;;1.30;;
26080;SDS011;13991;51.174;4.438;2023-06-24T14:06:14;2.90;;;1.60;;
26080;SDS011;13991;51.174;4.438;2023-06-24T14:08:41;8.80;;;1.70;;
26080;SDS011;13991;51.174;4.438;2023-06-24T14:11:07;5.18;;;1.45;;
26080;SDS011;13991;51.174;4.438;2023-06-24T14:13:33;3.00;;;1.25;;
26080;SDS011;13991;51.174;4.438;2023-06-24T14:15:58;5.28;;;1.63;;
26080;SDS011;13991;51.174;4.438;2023-06-24T14:18:24;2.70;;;1.63;;
26080;SDS011;13991;51.174;4.438;2023-06-24T14:20:50;5.20;;;1.33;;
26080;SDS011;13991;51.174;4.438;2023-06-24T14:23:16;4.07;;;1.17;;
26080;SDS011;13991;51.174;4.438;2023-06-24T14:25:43;6.35;;;1.90;;
26080;SDS011;13991;51.174;4.438;2023-06-24T14:28:10;17.60;;;1.33;;
26080;SDS011;13991;51.174;4.438;2023-06-24T14:30:35;2.00;;;1.10;;
26080;SDS011;13991;51.174;4.438;2023-06-24T14:33:01;5.47;;;1.20;;
26080;SDS011;13991;51.174;4.438;2023-06-24T14:35:27;2.85;;;1.63;;
26080;SDS011;13991;51.174;4.438;2023-06-24T14:37:52;2.35;;;1.30;;
26080;SDS011;13991;51.174;4.438;2023-06-24T14:40:18;2.88;;;1.20;;
26080;SDS011;13991;51.174;4.438;2023-06-24T14:42:44;2.10;;;1.17;;
26080;SDS011;13991;51.174;4.438;2023-06-24T14:45:09;2.08;;;1.15;;
26080;SDS011;13991;51.174;4.438;2023-06-24T14:47:35;8.68;;;1.60;;
26080;SDS011;13991;51.174;4.438;2023-06-24T14:50:02;2.67;;;1.40;;
26080;SDS011;13991;51.174;4.438;2023-06-24T14:52:28;5.55;;;1.42;;
26080;SDS011;13991;51.174;4.438;2023-06-24T14:54:54;4.53;;;1.70;;
26080;SDS011;13991;51.174;4.438;2023-06-24T14:57:20;1.83;;;1.25;;
26080;SDS011;13991;51.174;4.438;2023-06-24T14:59:48;3.47;;;1.65;;